createdAt,value
2022-08-27T00:02:04.586Z,91.70
2022-08-27T00:04:33.210Z,91.80
2022-08-27T00:07:01.736Z,91.60
2022-08-27T00:09:30.472Z,92.30
2022-08-27T00:11:59.354Z,92.80
2022-08-27T00:14:29.635Z,92.90
2022-08-27T00:16:59.141Z,93.10
2022-08-27T00:19:27.508Z,94.20
2022-08-27T00:21:55.925Z,94.90
2022-08-27T00:24:24.570Z,93.80
2022-08-27T00:26:53.916Z,94.70
2022-08-27T00:29:22.603Z,95.00
2022-08-27T00:31:53.338Z,95.40
2022-08-27T00:34:24.573Z,95.30
2022-08-27T00:36:53.335Z,95.60
2022-08-27T00:39:21.847Z,96.50
2022-08-27T00:41:49.967Z,96.70
2022-08-27T00:44:18.224Z,97.50
2022-08-27T00:46:49.170Z,97.30
2022-08-27T00:49:21.655Z,97.60
2022-08-27T00:51:55.358Z,97.90
2022-08-27T00:54:23.704Z,99.90
2022-08-27T00:56:52.213Z,99.90
2022-08-27T00:59:23.739Z,99.90
2022-08-27T01:02:10.360Z,99.90
2022-08-27T01:04:40.660Z,99.90
2022-08-27T01:07:11.505Z,99.90
2022-08-27T01:09:40.446Z,99.90
2022-08-27T01:12:09.231Z,99.90
2022-08-27T01:14:37.974Z,99.90
2022-08-27T01:17:10.036Z,99.90
2022-08-27T01:19:42.526Z,99.90
2022-08-27T01:22:23.163Z,99.90
2022-08-27T01:24:56.948Z,99.90
2022-08-27T01:27:27.900Z,99.90
2022-08-27T01:29:56.306Z,99.90
2022-08-27T01:32:27.047Z,99.90
2022-08-27T01:34:55.867Z,99.90
2022-08-27T01:37:25.640Z,99.90
2022-08-27T01:39:59.210Z,99.90
2022-08-27T01:42:31.328Z,99.90
2022-08-27T01:45:05.594Z,99.90
2022-08-27T01:47:35.231Z,99.90
2022-08-27T01:50:05.508Z,99.90
2022-08-27T01:52:33.679Z,99.90
2022-08-27T01:55:03.259Z,99.90
2022-08-27T01:57:32.563Z,99.90
2022-08-27T02:00:00.764Z,99.90
2022-08-27T02:02:52.605Z,99.90
2022-08-27T02:05:21.801Z,99.90
2022-08-27T02:07:50.458Z,99.90
2022-08-27T02:10:24.442Z,99.90
2022-08-27T02:12:53.882Z,99.90
2022-08-27T02:15:22.326Z,99.90
2022-08-27T02:17:51.534Z,99.90
2022-08-27T02:20:21.737Z,99.90
2022-08-27T02:22:51.121Z,99.90
2022-08-27T02:25:21.689Z,99.90
2022-08-27T02:27:51.515Z,99.90
2022-08-27T02:30:23.163Z,99.90
2022-08-27T02:32:53.105Z,99.90
2022-08-27T02:35:23.686Z,99.90
2022-08-27T02:37:52.593Z,99.90
2022-08-27T02:40:39.028Z,99.90
2022-08-27T02:43:07.696Z,99.90
2022-08-27T02:45:36.704Z,99.90
2022-08-27T02:48:06.089Z,99.90
2022-08-27T02:50:34.935Z,99.90
2022-08-27T02:53:04.073Z,99.90
2022-08-27T02:55:34.518Z,99.90
2022-08-27T02:58:05.298Z,99.90
2022-08-27T03:00:33.539Z,99.90
2022-08-27T03:03:03.319Z,99.90
2022-08-27T03:05:31.927Z,99.90
2022-08-27T03:08:00.306Z,99.90
2022-08-27T03:10:28.367Z,99.90
2022-08-27T03:12:58.361Z,99.90
2022-08-27T03:15:27.030Z,99.90
2022-08-27T03:18:17.765Z,99.90
2022-08-27T03:20:48.287Z,99.90
2022-08-27T03:23:17.501Z,99.90
2022-08-27T03:25:51.533Z,99.90
2022-08-27T03:28:23.363Z,99.90
2022-08-27T03:30:53.829Z,99.90
2022-08-27T03:33:22.578Z,99.90
2022-08-27T03:36:00.168Z,99.90
2022-08-27T03:38:28.474Z,99.90
2022-08-27T03:40:56.556Z,99.90
2022-08-27T03:43:26.443Z,99.90
2022-08-27T03:46:01.352Z,99.90
2022-08-27T03:48:30.830Z,99.90
2022-08-27T03:50:59.346Z,99.90
2022-08-27T03:53:28.381Z,99.90
2022-08-27T03:55:56.455Z,99.90
2022-08-27T03:58:25.944Z,99.90
2022-08-27T04:00:54.098Z,99.90
2022-08-27T04:03:22.590Z,99.90
2022-08-27T04:05:54.247Z,99.90
2022-08-27T04:08:23.132Z,99.90
2022-08-27T04:11:18.400Z,99.90
2022-08-27T04:13:48.079Z,99.90
2022-08-27T04:16:16.255Z,99.90
2022-08-27T04:18:44.440Z,99.90
2022-08-27T04:21:14.505Z,99.90
2022-08-27T04:23:44.300Z,99.90
2022-08-27T04:26:13.005Z,99.90
2022-08-27T04:28:41.180Z,99.90
2022-08-27T04:31:27.656Z,99.90
2022-08-27T04:33:56.042Z,99.90
2022-08-27T04:36:24.108Z,99.90
2022-08-27T04:38:52.244Z,99.90
2022-08-27T04:41:21.219Z,99.90
2022-08-27T04:43:51.276Z,99.90
2022-08-27T04:46:26.037Z,99.90
2022-08-27T04:48:54.806Z,99.90
2022-08-27T04:51:23.157Z,99.90
2022-08-27T04:53:51.940Z,99.90
2022-08-27T04:56:22.814Z,99.90
2022-08-27T04:58:51.661Z,99.90
2022-08-27T05:01:22.822Z,99.90
2022-08-27T05:03:52.515Z,99.90
2022-08-27T05:06:20.948Z,99.90
2022-08-27T05:08:50.228Z,99.90
2022-08-27T05:11:20.837Z,99.90
2022-08-27T05:13:49.699Z,99.90
2022-08-27T05:16:20.716Z,99.90
2022-08-27T05:18:50.522Z,99.90
2022-08-27T05:21:22.365Z,99.90
2022-08-27T05:23:51.491Z,99.90
2022-08-27T05:26:20.319Z,99.90
2022-08-27T05:28:48.697Z,99.90
2022-08-27T05:31:17.512Z,99.90
2022-08-27T05:33:46.514Z,99.90
2022-08-27T05:36:21.656Z,99.90
2022-08-27T05:38:50.850Z,99.90
2022-08-27T05:41:21.279Z,99.90
2022-08-27T05:43:50.675Z,99.90
2022-08-27T05:46:21.850Z,99.90
2022-08-27T05:48:51.436Z,99.90
2022-08-27T05:51:25.343Z,99.90
2022-08-27T05:53:57.455Z,99.90
2022-08-27T05:56:27.408Z,99.90
2022-08-27T05:59:13.507Z,99.90
2022-08-27T06:01:45.011Z,99.90
2022-08-27T06:04:17.801Z,99.90
2022-08-27T06:06:49.061Z,99.90
2022-08-27T06:09:19.189Z,99.90
2022-08-27T06:11:47.391Z,99.90
2022-08-27T06:14:15.731Z,99.90
2022-08-27T06:16:44.084Z,99.90
2022-08-27T06:19:13.175Z,99.90
2022-08-27T06:21:42.519Z,99.90
2022-08-27T06:24:13.868Z,99.90
2022-08-27T06:26:43.930Z,99.90
2022-08-27T06:29:13.797Z,99.90
2022-08-27T06:31:42.571Z,99.90
2022-08-27T06:34:12.078Z,99.90
2022-08-27T06:36:42.989Z,99.90
2022-08-27T06:39:15.559Z,99.90
2022-08-27T06:41:45.802Z,99.90
2022-08-27T06:44:15.087Z,99.90
2022-08-27T06:46:44.298Z,99.90
2022-08-27T06:49:13.054Z,99.90
2022-08-27T06:51:44.829Z,99.90
2022-08-27T06:54:15.583Z,99.90
2022-08-27T06:56:44.638Z,99.90
2022-08-27T06:59:16.573Z,99.90
2022-08-27T07:01:47.303Z,99.90
2022-08-27T07:04:20.043Z,99.90
2022-08-27T07:06:48.327Z,99.90
2022-08-27T07:09:20.753Z,99.90
2022-08-27T07:11:48.963Z,99.90
2022-08-27T07:14:17.302Z,99.90
2022-08-27T07:16:45.651Z,99.90
2022-08-27T07:19:16.342Z,99.90
2022-08-27T07:21:45.564Z,99.90
2022-08-27T07:24:14.073Z,99.90
2022-08-27T07:26:45.045Z,99.90
2022-08-27T07:29:15.669Z,99.90
2022-08-27T07:31:44.387Z,99.90
2022-08-27T07:34:12.629Z,99.90
2022-08-27T07:36:41.267Z,99.90
2022-08-27T07:39:10.021Z,98.60
2022-08-27T07:41:59.391Z,98.80
2022-08-27T07:44:34.174Z,98.70
2022-08-27T07:47:03.257Z,99.20
2022-08-27T07:49:35.082Z,97.40
2022-08-27T07:52:03.649Z,97.70
2022-08-27T07:54:31.792Z,97.10
2022-08-27T07:57:00.237Z,96.30
2022-08-27T07:59:29.759Z,94.00
2022-08-27T08:01:58.167Z,93.10
2022-08-27T08:04:27.350Z,92.10
2022-08-27T08:06:56.570Z,91.30
2022-08-27T08:09:25.585Z,90.00
2022-08-27T08:11:54.765Z,90.00
2022-08-27T08:14:23.609Z,88.90
2022-08-27T08:16:53.089Z,88.70
2022-08-27T08:19:21.269Z,99.90
2022-08-27T08:21:49.808Z,86.10
2022-08-27T08:24:20.381Z,84.40
2022-08-27T08:26:48.889Z,82.00
2022-08-27T08:29:18.211Z,80.20
2022-08-27T08:31:50.293Z,81.60
2022-08-27T08:34:20.710Z,79.80
2022-08-27T08:36:54.716Z,78.20
2022-08-27T08:39:24.467Z,76.50
2022-08-27T08:41:55.577Z,75.30
2022-08-27T08:44:32.520Z,73.90
2022-08-27T08:47:05.301Z,74.80
2022-08-27T08:49:40.302Z,72.70
2022-08-27T08:52:26.974Z,71.30
2022-08-27T08:55:10.116Z,71.10
2022-08-27T08:57:44.855Z,69.50
2022-08-27T09:00:14.805Z,68.30
2022-08-27T09:02:50.558Z,65.60
2022-08-27T09:05:20.210Z,65.20
2022-08-27T09:08:28.407Z,63.50
2022-08-27T09:10:58.996Z,61.30
2022-08-27T09:13:30.918Z,60.20
2022-08-27T09:16:02.143Z,57.20
2022-08-27T09:18:31.524Z,56.30
2022-08-27T09:21:09.973Z,56.40
2022-08-27T09:23:44.562Z,55.40
2022-08-27T09:26:20.359Z,53.90
2022-08-27T09:29:11.200Z,52.20
2022-08-27T09:31:41.027Z,51.70
2022-08-27T09:34:09.531Z,51.00
2022-08-27T09:36:51.028Z,50.70
2022-08-27T09:39:19.355Z,47.60
2022-08-27T09:41:49.667Z,47.50
2022-08-27T09:44:20.087Z,44.60
2022-08-27T09:47:00.374Z,44.60
2022-08-27T09:49:28.783Z,43.60
2022-08-27T09:51:59.536Z,41.90
2022-08-27T09:54:43.531Z,43.00
2022-08-27T09:57:14.618Z,41.60
2022-08-27T09:59:52.643Z,39.00
2022-08-27T10:02:24.486Z,39.40
2022-08-27T10:04:54.737Z,36.70
2022-08-27T10:07:32.460Z,35.80
2022-08-27T10:10:08.052Z,34.30
2022-08-27T10:12:45.840Z,36.10
2022-08-27T10:15:15.868Z,33.60
2022-08-27T10:17:53.228Z,33.90
2022-08-27T10:20:30.242Z,30.20
2022-08-27T10:23:11.017Z,29.60
2022-08-27T10:25:46.237Z,25.10
2022-08-27T10:28:27.476Z,23.80
2022-08-27T10:31:09.548Z,19.70
2022-08-27T10:33:43.643Z,19.10
2022-08-27T10:36:22.994Z,19.00
2022-08-27T10:39:03.899Z,17.40
2022-08-27T10:41:36.524Z,14.90
2022-08-27T10:44:46.335Z,13.10
2022-08-27T10:47:33.503Z,13.90
2022-08-27T10:50:07.073Z,11.30
2022-08-27T10:52:40.580Z,10.10
2022-08-27T10:55:15.479Z,10.50
2022-08-27T10:58:03.098Z,26.20
2022-08-27T11:00:40.182Z,7.80
2022-08-27T11:03:13.874Z,8.00
2022-08-27T11:05:46.388Z,7.80
2022-08-27T11:08:20.351Z,8.20
2022-08-27T11:10:53.743Z,8.20
2022-08-27T11:13:34.137Z,9.20
2022-08-27T11:16:07.399Z,8.80
2022-08-27T11:18:43.657Z,6.10
2022-08-27T11:21:17.941Z,5.10
2022-08-27T11:23:49.693Z,5.70
2022-08-27T11:26:19.210Z,5.90
2022-08-27T11:28:51.580Z,4.60
2022-08-27T11:31:25.284Z,4.40
2022-08-27T11:34:01.193Z,4.30
2022-08-27T11:36:57.140Z,4.90
2022-08-27T11:39:51.137Z,5.10
2022-08-27T11:42:36.165Z,2.10
2022-08-27T11:45:09.055Z,2.00
2022-08-27T11:47:38.792Z,1.30
2022-08-27T11:50:17.412Z,1.00
2022-08-27T11:52:59.233Z,1.00
2022-08-27T11:55:31.782Z,1.00
2022-08-27T11:58:26.064Z,1.00
2022-08-27T12:00:54.844Z,1.00
2022-08-27T12:03:31.696Z,1.00
2022-08-27T12:06:19.044Z,1.00
2022-08-27T12:08:47.269Z,1.00
2022-08-27T12:11:37.758Z,1.00
2022-08-27T12:14:18.191Z,1.00
2022-08-27T12:16:57.106Z,1.00
2022-08-27T12:19:34.133Z,1.00
2022-08-27T12:22:14.214Z,1.00
2022-08-27T12:24:51.943Z,1.00
2022-08-27T12:27:32.447Z,1.00
2022-08-27T12:30:08.317Z,1.00
2022-08-27T12:32:41.021Z,1.00
2022-08-27T12:35:13.205Z,1.00
2022-08-27T12:37:48.654Z,1.00
2022-08-27T12:40:24.556Z,1.00
2022-08-27T12:43:04.752Z,1.00
2022-08-27T12:45:35.703Z,1.00
2022-08-27T12:48:04.614Z,1.00
2022-08-27T12:50:32.819Z,1.00
2022-08-27T12:53:15.267Z,1.00
2022-08-27T12:56:01.373Z,1.00
2022-08-27T12:58:42.668Z,1.00
2022-08-27T13:01:26.039Z,1.00
2022-08-27T13:03:55.948Z,1.00
2022-08-27T13:06:29.172Z,1.00
2022-08-27T13:09:00.186Z,1.00
2022-08-27T13:11:31.059Z,1.00
2022-08-27T13:14:10.507Z,1.00
2022-08-27T13:16:48.653Z,1.00
2022-08-27T13:19:22.702Z,1.00
2022-08-27T13:21:52.125Z,1.00
2022-08-27T13:24:27.657Z,1.00
2022-08-27T13:26:57.390Z,1.00
2022-08-27T13:29:26.717Z,1.00
2022-08-27T13:31:56.477Z,1.00
2022-08-27T13:34:27.475Z,1.00
2022-08-27T13:36:59.649Z,1.00
2022-08-27T13:39:28.958Z,1.00
2022-08-27T13:42:00.623Z,1.00
2022-08-27T13:44:38.718Z,1.00
2022-08-27T13:47:11.574Z,1.00
2022-08-27T13:49:40.536Z,1.00
2022-08-27T13:52:17.499Z,1.00
2022-08-27T13:54:46.425Z,1.00
2022-08-27T13:57:25.532Z,1.00
2022-08-27T13:59:53.948Z,1.00
2022-08-27T14:02:28.668Z,1.00
2022-08-27T14:05:11.412Z,1.00
2022-08-27T14:07:46.483Z,1.00
2022-08-27T14:10:33.507Z,1.00
2022-08-27T14:13:04.338Z,1.00
2022-08-27T14:15:36.015Z,1.00
2022-08-27T14:18:07.579Z,1.00
2022-08-27T14:20:37.033Z,1.00
2022-08-27T14:23:05.696Z,1.00
2022-08-27T14:25:34.663Z,1.00
2022-08-27T14:28:03.175Z,1.00
2022-08-27T14:30:31.513Z,1.00
2022-08-27T14:33:00.861Z,1.00
2022-08-27T14:35:34.178Z,1.00
2022-08-27T14:38:08.201Z,1.00
2022-08-27T14:40:36.446Z,1.00
2022-08-27T14:43:05.468Z,1.00
2022-08-27T14:45:38.339Z,1.00
2022-08-27T14:48:08.212Z,1.00
2022-08-27T14:50:48.245Z,1.00
2022-08-27T14:53:17.519Z,1.00
2022-08-27T14:55:46.885Z,1.00
2022-08-27T14:58:20.486Z,1.00
2022-08-27T15:00:48.935Z,1.00
2022-08-27T15:03:18.572Z,1.00
2022-08-27T15:05:48.068Z,1.00
2022-08-27T15:08:17.227Z,1.00
2022-08-27T15:10:45.813Z,1.00
2022-08-27T15:13:14.071Z,1.00
2022-08-27T15:15:42.494Z,1.00
2022-08-27T15:18:11.347Z,1.00
2022-08-27T15:20:41.153Z,1.00
2022-08-27T15:23:13.659Z,1.00
2022-08-27T15:25:42.616Z,1.00
2022-08-27T15:28:10.872Z,1.00
2022-08-27T15:30:39.344Z,1.00
2022-08-27T15:33:08.076Z,1.00
2022-08-27T15:35:36.673Z,1.00
2022-08-27T15:38:05.119Z,1.00
2022-08-27T15:40:36.817Z,1.00
2022-08-27T15:43:07.534Z,1.00
2022-08-27T15:45:36.777Z,1.00
2022-08-27T15:48:05.537Z,1.00
2022-08-27T15:50:34.246Z,1.00
2022-08-27T15:53:05.329Z,1.00
2022-08-27T15:55:37.738Z,1.00
2022-08-27T15:58:06.667Z,1.00
2022-08-27T16:00:36.874Z,1.00
2022-08-27T16:03:09.307Z,1.00
2022-08-27T16:05:39.795Z,1.00
2022-08-27T16:08:08.501Z,1.00
2022-08-27T16:10:38.276Z,1.00
2022-08-27T16:13:06.311Z,1.00
2022-08-27T16:15:38.288Z,1.00
2022-08-27T16:18:07.129Z,1.00
2022-08-27T16:20:35.349Z,1.00
2022-08-27T16:23:03.611Z,1.00
2022-08-27T16:25:31.835Z,1.00
2022-08-27T16:28:01.760Z,1.00
2022-08-27T16:30:29.988Z,1.00
2022-08-27T16:32:58.704Z,1.00
2022-08-27T16:35:26.805Z,1.00
2022-08-27T16:37:54.911Z,1.00
2022-08-27T16:40:23.370Z,1.00
2022-08-27T16:42:52.886Z,1.00
2022-08-27T16:45:24.140Z,1.40
2022-08-27T16:48:10.616Z,1.00
2022-08-27T16:50:39.793Z,1.00
2022-08-27T16:53:13.238Z,1.00
2022-08-27T16:55:50.999Z,1.00
2022-08-27T16:58:35.311Z,1.00
2022-08-27T17:01:08.280Z,1.00
2022-08-27T17:04:05.040Z,1.00
2022-08-27T17:06:31.077Z,1.00
2022-08-27T17:08:59.971Z,1.00
2022-08-27T17:11:30.774Z,1.00
2022-08-27T17:14:03.008Z,1.00
2022-08-27T17:16:36.800Z,1.00
2022-08-27T17:19:07.010Z,1.00
2022-08-27T17:21:37.132Z,1.00
2022-08-27T17:24:12.175Z,1.00
2022-08-27T17:26:43.028Z,1.00
2022-08-27T17:29:11.154Z,1.00
2022-08-27T17:31:43.625Z,1.00
2022-08-27T17:34:16.488Z,1.00
2022-08-27T17:36:45.511Z,1.00
2022-08-27T17:39:13.953Z,1.00
2022-08-27T17:41:43.737Z,2.60
2022-08-27T17:44:17.971Z,1.80
2022-08-27T17:46:47.675Z,2.50
2022-08-27T17:49:16.901Z,3.70
2022-08-27T17:51:45.371Z,3.00
2022-08-27T17:54:27.691Z,3.00
2022-08-27T17:56:56.085Z,5.60
2022-08-27T17:59:24.351Z,5.20
2022-08-27T18:01:54.417Z,7.30
2022-08-27T18:04:23.035Z,6.30
2022-08-27T18:06:51.145Z,6.90
2022-08-27T18:09:19.275Z,7.10
2022-08-27T18:11:48.286Z,8.50
2022-08-27T18:14:18.579Z,8.70
2022-08-27T18:16:47.369Z,27.00
2022-08-27T18:19:17.023Z,9.10
2022-08-27T18:21:46.654Z,9.40
2022-08-27T18:24:16.042Z,10.60
2022-08-27T18:26:45.222Z,11.50
2022-08-27T18:29:15.420Z,10.60
2022-08-27T18:31:46.605Z,11.00
2022-08-27T18:34:26.518Z,11.30
2022-08-27T18:36:54.737Z,12.90
2022-08-27T18:39:25.728Z,12.90
2022-08-27T18:41:57.088Z,13.20
2022-08-27T18:44:25.760Z,13.90
2022-08-27T18:46:54.410Z,15.40
2022-08-27T18:49:25.862Z,15.10
2022-08-27T18:51:54.735Z,16.20
2022-08-27T18:54:24.422Z,16.60
2022-08-27T18:56:52.492Z,17.20
2022-08-27T18:59:25.621Z,17.80
2022-08-27T19:01:53.953Z,17.90
2022-08-27T19:04:24.711Z,19.70
2022-08-27T19:06:52.878Z,19.60
2022-08-27T19:09:21.280Z,20.10
2022-08-27T19:11:51.579Z,21.00
2022-08-27T19:14:19.668Z,21.80
2022-08-27T19:16:54.224Z,22.70
2022-08-27T19:19:25.446Z,23.60
2022-08-27T19:21:53.898Z,24.10
2022-08-27T19:24:24.910Z,25.00
2022-08-27T19:26:54.700Z,25.10
2022-08-27T19:29:27.675Z,23.40
2022-08-27T19:31:55.891Z,23.20
2022-08-27T19:34:25.336Z,22.40
2022-08-27T19:36:53.450Z,23.70
2022-08-27T19:39:21.539Z,45.50
2022-08-27T19:41:49.679Z,24.90
2022-08-27T19:44:17.724Z,25.60
2022-08-27T19:46:46.215Z,26.90
2022-08-27T19:49:14.261Z,27.80
2022-08-27T19:51:43.813Z,30.00
2022-08-27T19:54:11.885Z,32.00
2022-08-27T19:56:40.015Z,31.50
2022-08-27T19:59:20.367Z,33.30
2022-08-27T20:01:50.045Z,32.20
2022-08-27T20:04:18.119Z,32.60
2022-08-27T20:06:47.904Z,33.60
2022-08-27T20:09:18.042Z,34.40
2022-08-27T20:11:47.592Z,35.80
2022-08-27T20:14:15.595Z,35.70
2022-08-27T20:16:46.095Z,37.00
2022-08-27T20:19:15.584Z,37.60
2022-08-27T20:21:43.770Z,39.50
2022-08-27T20:24:13.265Z,39.50
2022-08-27T20:26:42.589Z,40.30
2022-08-27T20:29:11.775Z,40.80
2022-08-27T20:31:43.409Z,41.20
2022-08-27T20:34:11.475Z,42.90
2022-08-27T20:36:39.883Z,45.00
2022-08-27T20:39:08.581Z,45.70
2022-08-27T20:41:38.097Z,45.80
2022-08-27T20:44:07.786Z,45.50
2022-08-27T20:46:36.582Z,46.10
2022-08-27T20:49:06.054Z,45.90
2022-08-27T20:52:02.172Z,46.60
2022-08-27T20:54:25.258Z,47.10
2022-08-27T20:56:54.724Z,46.90
2022-08-27T20:59:40.572Z,49.20
2022-08-27T21:02:10.789Z,48.00
2022-08-27T21:04:40.611Z,48.50
2022-08-27T21:07:08.831Z,50.80
2022-08-27T21:09:44.886Z,51.00
2022-08-27T21:12:26.998Z,52.20
2022-08-27T21:14:56.485Z,52.90
2022-08-27T21:17:26.246Z,54.40
2022-08-27T21:19:54.482Z,54.70
2022-08-27T21:22:22.974Z,56.00
2022-08-27T21:24:51.439Z,85.30
2022-08-27T21:27:22.423Z,56.60
2022-08-27T21:30:29.318Z,57.00
2022-08-27T21:32:57.694Z,57.30
2022-08-27T21:35:27.556Z,60.00
2022-08-27T21:37:56.455Z,59.10
2022-08-27T21:40:25.335Z,60.30
2022-08-27T21:42:53.982Z,63.10
2022-08-27T21:45:23.842Z,61.20
2022-08-27T21:47:54.242Z,62.60
2022-08-27T21:50:23.421Z,63.20
2022-08-27T21:52:51.873Z,64.50
2022-08-27T21:55:20.354Z,65.40
2022-08-27T21:57:49.116Z,66.70
2022-08-27T22:00:38.334Z,64.80
2022-08-27T22:03:10.663Z,66.70
2022-08-27T22:05:41.247Z,68.50
2022-08-27T22:08:10.689Z,68.80
2022-08-27T22:10:40.231Z,69.30
2022-08-27T22:13:08.650Z,72.20
2022-08-27T22:15:37.076Z,69.70
2022-08-27T22:18:08.422Z,69.70
2022-08-27T22:20:37.156Z,71.50
2022-08-27T22:23:06.139Z,73.10
2022-08-27T22:25:34.441Z,74.90
2022-08-27T22:28:02.820Z,75.40
2022-08-27T22:30:31.555Z,74.30
2022-08-27T22:32:59.578Z,73.00
2022-08-27T22:35:29.485Z,74.00
2022-08-27T22:37:57.692Z,76.50
2022-08-27T22:40:28.491Z,76.60
2022-08-27T22:42:57.272Z,77.80
2022-08-27T22:45:27.128Z,79.10
2022-08-27T22:47:55.378Z,79.30
2022-08-27T22:50:24.504Z,83.00
2022-08-27T22:52:54.288Z,82.90
2022-08-27T22:55:24.188Z,83.60
2022-08-27T22:57:54.040Z,85.30
2022-08-27T23:00:24.516Z,86.90
2022-08-27T23:02:52.774Z,86.80
2022-08-27T23:05:21.451Z,87.80
2022-08-27T23:07:49.890Z,86.60
2022-08-27T23:10:21.205Z,87.40
2022-08-27T23:12:49.881Z,89.30
2022-08-27T23:15:19.332Z,88.80
2022-08-27T23:17:47.578Z,88.80
2022-08-27T23:20:16.641Z,87.80
2022-08-27T23:22:45.694Z,87.20
2022-08-27T23:25:31.396Z,88.60
2022-08-27T23:28:03.710Z,89.60
2022-08-27T23:30:35.569Z,90.40
2022-08-27T23:33:03.640Z,91.20
2022-08-27T23:35:31.924Z,91.90
2022-08-27T23:38:00.274Z,91.40
2022-08-27T23:40:28.410Z,91.90
2022-08-27T23:42:56.496Z,92.90
2022-08-27T23:45:30.678Z,92.60
2022-08-27T23:47:58.776Z,93.30
2022-08-27T23:50:34.173Z,93.80
2022-08-27T23:53:02.901Z,93.00
2022-08-27T23:55:31.007Z,93.00
2022-08-27T23:58:00.313Z,94.20
